sensor_id;sensor_type;location;lat;lon;timestamp;P1;durP1;ratioP1;P2;durP2;ratioP2
5147;SDS011;2592;48.140;7.614;2024-01-11T00:01:19;44.70;;;30.47;;
5147;SDS011;2592;48.140;7.614;2024-01-11T00:03:45;46.90;;;30.90;;
5147;SDS011;2592;48.140;7.614;2024-01-11T00:06:11;40.83;;;30.10;;
5147;SDS011;2592;48.140;7.614;2024-01-11T00:08:38;40.47;;;29.30;;
5147;SDS011;2592;48.140;7.614;2024-01-11T00:11:06;44.90;;;29.50;;
5147;SDS011;2592;48.140;7.614;2024-01-11T00:13:32;44.60;;;29.63;;
5147;SDS011;2592;48.140;7.614;2024-01-11T00:15:58;42.27;;;30.53;;
5147;SDS011;2592;48.140;7.614;2024-01-11T00:18:25;40.57;;;28.83;;
5147;SDS011;2592;48.140;7.614;2024-01-11T00:20:51;46.83;;;29.73;;
5147;SDS011;2592;48.140;7.614;2024-01-11T00:23:18;42.90;;;30.60;;
5147;SDS011;2592;48.140;7.614;2024-01-11T00:25:44;43.03;;;28.80;;
5147;SDS011;2592;48.140;7.614;2024-01-11T00:28:12;40.07;;;28.47;;
5147;SDS011;2592;48.140;7.614;2024-01-11T00:30:38;40.10;;;29.43;;
5147;SDS011;2592;48.140;7.614;2024-01-11T00:33:05;43.20;;;29.10;;
5147;SDS011;2592;48.140;7.614;2024-01-11T00:35:31;39.60;;;28.57;;
5147;SDS011;2592;48.140;7.614;2024-01-11T00:37:58;41.73;;;29.80;;
5147;SDS011;2592;48.140;7.614;2024-01-11T00:40:24;39.70;;;28.47;;
5147;SDS011;2592;48.140;7.614;2024-01-11T00:42:50;42.77;;;30.37;;
5147;SDS011;2592;48.140;7.614;2024-01-11T00:45:18;39.77;;;28.80;;
5147;SDS011;2592;48.140;7.614;2024-01-11T00:47:45;38.93;;;27.60;;
5147;SDS011;2592;48.140;7.614;2024-01-11T00:50:11;38.37;;;28.33;;
5147;SDS011;2592;48.140;7.614;2024-01-11T00:52:37;40.37;;;27.83;;
5147;SDS011;2592;48.140;7.614;2024-01-11T00:55:04;37.00;;;26.23;;
5147;SDS011;2592;48.140;7.614;2024-01-11T00:57:31;38.07;;;27.70;;
5147;SDS011;2592;48.140;7.614;2024-01-11T00:59:57;38.67;;;27.60;;
5147;SDS011;2592;48.140;7.614;2024-01-11T01:02:25;38.50;;;27.33;;
5147;SDS011;2592;48.140;7.614;2024-01-11T01:04:51;41.83;;;27.90;;
5147;SDS011;2592;48.140;7.614;2024-01-11T01:07:18;37.00;;;27.17;;
5147;SDS011;2592;48.140;7.614;2024-01-11T01:09:44;39.77;;;27.83;;
5147;SDS011;2592;48.140;7.614;2024-01-11T01:12:10;37.87;;;27.97;;
5147;SDS011;2592;48.140;7.614;2024-01-11T01:14:37;36.37;;;25.97;;
5147;SDS011;2592;48.140;7.614;2024-01-11T01:17:03;36.97;;;26.90;;
5147;SDS011;2592;48.140;7.614;2024-01-11T01:19:31;33.40;;;24.67;;
5147;SDS011;2592;48.140;7.614;2024-01-11T01:21:58;39.90;;;28.03;;
5147;SDS011;2592;48.140;7.614;2024-01-11T01:24:24;36.83;;;26.23;;
5147;SDS011;2592;48.140;7.614;2024-01-11T01:26:51;37.13;;;26.47;;
5147;SDS011;2592;48.140;7.614;2024-01-11T01:29:17;47.57;;;26.47;;
5147;SDS011;2592;48.140;7.614;2024-01-11T01:31:43;39.33;;;27.40;;
5147;SDS011;2592;48.140;7.614;2024-01-11T01:34:10;36.70;;;26.03;;
5147;SDS011;2592;48.140;7.614;2024-01-11T01:36:38;37.40;;;26.57;;
5147;SDS011;2592;48.140;7.614;2024-01-11T01:39:05;36.23;;;24.67;;
5147;SDS011;2592;48.140;7.614;2024-01-11T01:41:31;37.60;;;26.43;;
5147;SDS011;2592;48.140;7.614;2024-01-11T01:43:57;36.97;;;26.80;;
5147;SDS011;2592;48.140;7.614;2024-01-11T01:46:24;37.53;;;25.07;;
5147;SDS011;2592;48.140;7.614;2024-01-11T01:48:50;37.80;;;26.93;;
5147;SDS011;2592;48.140;7.614;2024-01-11T01:51:17;35.63;;;25.70;;
5147;SDS011;2592;48.140;7.614;2024-01-11T01:53:45;34.00;;;24.57;;
5147;SDS011;2592;48.140;7.614;2024-01-11T01:56:12;37.87;;;26.40;;
5147;SDS011;2592;48.140;7.614;2024-01-11T01:58:39;35.57;;;25.70;;
5147;SDS011;2592;48.140;7.614;2024-01-11T02:01:06;38.40;;;24.90;;
5147;SDS011;2592;48.140;7.614;2024-01-11T02:03:32;34.80;;;24.03;;
5147;SDS011;2592;48.140;7.614;2024-01-11T02:05:59;31.67;;;23.33;;
5147;SDS011;2592;48.140;7.614;2024-01-11T02:08:26;28.70;;;21.67;;
5147;SDS011;2592;48.140;7.614;2024-01-11T02:10:54;37.43;;;24.93;;
5147;SDS011;2592;48.140;7.614;2024-01-11T02:13:21;32.03;;;23.00;;
5147;SDS011;2592;48.140;7.614;2024-01-11T02:15:48;32.30;;;23.47;;
5147;SDS011;2592;48.140;7.614;2024-01-11T02:18:14;32.00;;;24.20;;
5147;SDS011;2592;48.140;7.614;2024-01-11T02:20:40;31.80;;;23.00;;
5147;SDS011;2592;48.140;7.614;2024-01-11T02:23:07;32.70;;;23.30;;
5147;SDS011;2592;48.140;7.614;2024-01-11T02:25:37;33.40;;;24.30;;
5147;SDS011;2592;48.140;7.614;2024-01-11T02:28:04;33.00;;;23.87;;
5147;SDS011;2592;48.140;7.614;2024-01-11T02:30:30;32.70;;;24.77;;
5147;SDS011;2592;48.140;7.614;2024-01-11T02:32:56;31.70;;;24.40;;
5147;SDS011;2592;48.140;7.614;2024-01-11T02:35:23;31.67;;;23.37;;
5147;SDS011;2592;48.140;7.614;2024-01-11T02:37:50;32.00;;;24.33;;
5147;SDS011;2592;48.140;7.614;2024-01-11T02:40:17;30.50;;;22.10;;
5147;SDS011;2592;48.140;7.614;2024-01-11T02:42:46;32.50;;;24.30;;
5147;SDS011;2592;48.140;7.614;2024-01-11T02:45:12;36.40;;;23.93;;
5147;SDS011;2592;48.140;7.614;2024-01-11T02:47:38;32.70;;;24.30;;
5147;SDS011;2592;48.140;7.614;2024-01-11T02:50:05;37.23;;;26.20;;
5147;SDS011;2592;48.140;7.614;2024-01-11T02:52:33;35.80;;;25.70;;
5147;SDS011;2592;48.140;7.614;2024-01-11T02:54:59;34.23;;;24.97;;
5147;SDS011;2592;48.140;7.614;2024-01-11T02:57:25;36.23;;;25.33;;
5147;SDS011;2592;48.140;7.614;2024-01-11T02:59:53;35.70;;;24.47;;
5147;SDS011;2592;48.140;7.614;2024-01-11T03:02:20;36.87;;;27.33;;
5147;SDS011;2592;48.140;7.614;2024-01-11T03:04:46;34.20;;;25.13;;
5147;SDS011;2592;48.140;7.614;2024-01-11T03:07:13;40.60;;;28.00;;
5147;SDS011;2592;48.140;7.614;2024-01-11T03:09:39;35.37;;;26.90;;
5147;SDS011;2592;48.140;7.614;2024-01-11T03:12:06;37.90;;;25.70;;
5147;SDS011;2592;48.140;7.614;2024-01-11T03:14:32;35.23;;;26.30;;
5147;SDS011;2592;48.140;7.614;2024-01-11T03:17:00;44.67;;;27.93;;
5147;SDS011;2592;48.140;7.614;2024-01-11T03:19:27;38.30;;;26.63;;
5147;SDS011;2592;48.140;7.614;2024-01-11T03:21:53;41.23;;;28.17;;
5147;SDS011;2592;48.140;7.614;2024-01-11T03:24:19;35.33;;;26.17;;
5147;SDS011;2592;48.140;7.614;2024-01-11T03:26:47;40.57;;;26.20;;
5147;SDS011;2592;48.140;7.614;2024-01-11T03:29:13;33.73;;;23.50;;
5147;SDS011;2592;48.140;7.614;2024-01-11T03:31:40;38.33;;;24.90;;
5147;SDS011;2592;48.140;7.614;2024-01-11T03:34:09;36.33;;;24.23;;
5147;SDS011;2592;48.140;7.614;2024-01-11T03:36:36;37.60;;;25.57;;
5147;SDS011;2592;48.140;7.614;2024-01-11T03:39:02;35.50;;;24.87;;
5147;SDS011;2592;48.140;7.614;2024-01-11T03:41:29;29.47;;;22.97;;
5147;SDS011;2592;48.140;7.614;2024-01-11T03:43:55;36.00;;;24.30;;
5147;SDS011;2592;48.140;7.614;2024-01-11T03:46:22;35.40;;;23.67;;
5147;SDS011;2592;48.140;7.614;2024-01-11T03:48:48;31.77;;;23.53;;
5147;SDS011;2592;48.140;7.614;2024-01-11T03:51:16;33.77;;;24.77;;
5147;SDS011;2592;48.140;7.614;2024-01-11T03:53:42;32.03;;;24.10;;
5147;SDS011;2592;48.140;7.614;2024-01-11T03:56:09;39.00;;;24.23;;
5147;SDS011;2592;48.140;7.614;2024-01-11T03:58:35;32.33;;;23.30;;
5147;SDS011;2592;48.140;7.614;2024-01-11T04:01:04;36.17;;;24.10;;
5147;SDS011;2592;48.140;7.614;2024-01-11T04:03:32;33.73;;;24.33;;
5147;SDS011;2592;48.140;7.614;2024-01-11T04:05:58;34.60;;;24.63;;
5147;SDS011;2592;48.140;7.614;2024-01-11T04:08:25;42.27;;;28.80;;
5147;SDS011;2592;48.140;7.614;2024-01-11T04:10:51;43.83;;;30.10;;
5147;SDS011;2592;48.140;7.614;2024-01-11T04:13:18;45.70;;;29.27;;
5147;SDS011;2592;48.140;7.614;2024-01-11T04:15:44;46.90;;;30.10;;
5147;SDS011;2592;48.140;7.614;2024-01-11T04:18:11;41.17;;;28.63;;
5147;SDS011;2592;48.140;7.614;2024-01-11T04:20:37;35.27;;;25.80;;
5147;SDS011;2592;48.140;7.614;2024-01-11T04:23:04;38.73;;;26.73;;
5147;SDS011;2592;48.140;7.614;2024-01-11T04:25:31;34.17;;;24.33;;
5147;SDS011;2592;48.140;7.614;2024-01-11T04:27:58;37.37;;;26.27;;
5147;SDS011;2592;48.140;7.614;2024-01-11T04:30:24;39.43;;;25.60;;
5147;SDS011;2592;48.140;7.614;2024-01-11T04:32:50;36.70;;;26.20;;
5147;SDS011;2592;48.140;7.614;2024-01-11T04:35:17;32.73;;;24.43;;
5147;SDS011;2592;48.140;7.614;2024-01-11T04:37:43;33.70;;;24.23;;
5147;SDS011;2592;48.140;7.614;2024-01-11T04:40:10;35.90;;;27.00;;
5147;SDS011;2592;48.140;7.614;2024-01-11T04:42:38;36.20;;;25.33;;
5147;SDS011;2592;48.140;7.614;2024-01-11T04:45:04;40.57;;;27.17;;
5147;SDS011;2592;48.140;7.614;2024-01-11T04:47:31;38.90;;;27.53;;
5147;SDS011;2592;48.140;7.614;2024-01-11T04:49:57;46.63;;;33.43;;
5147;SDS011;2592;48.140;7.614;2024-01-11T04:52:24;97.03;;;61.27;;
5147;SDS011;2592;48.140;7.614;2024-01-11T04:54:50;54.23;;;37.00;;
5147;SDS011;2592;48.140;7.614;2024-01-11T04:57:17;48.73;;;35.80;;
5147;SDS011;2592;48.140;7.614;2024-01-11T04:59:44;62.60;;;44.20;;
5147;SDS011;2592;48.140;7.614;2024-01-11T05:02:11;57.30;;;42.40;;
5147;SDS011;2592;48.140;7.614;2024-01-11T05:04:37;47.60;;;35.80;;
5147;SDS011;2592;48.140;7.614;2024-01-11T05:07:03;48.73;;;36.20;;
5147;SDS011;2592;48.140;7.614;2024-01-11T05:09:30;47.13;;;34.10;;
5147;SDS011;2592;48.140;7.614;2024-01-11T05:11:56;49.30;;;34.10;;
5147;SDS011;2592;48.140;7.614;2024-01-11T05:14:23;47.97;;;34.63;;
5147;SDS011;2592;48.140;7.614;2024-01-11T05:16:50;44.77;;;32.30;;
5147;SDS011;2592;48.140;7.614;2024-01-11T05:19:17;46.30;;;33.67;;
5147;SDS011;2592;48.140;7.614;2024-01-11T05:21:44;50.10;;;35.07;;
5147;SDS011;2592;48.140;7.614;2024-01-11T05:24:10;46.20;;;31.40;;
5147;SDS011;2592;48.140;7.614;2024-01-11T05:26:37;50.60;;;34.37;;
5147;SDS011;2592;48.140;7.614;2024-01-11T05:29:03;48.00;;;34.70;;
5147;SDS011;2592;48.140;7.614;2024-01-11T05:31:30;49.23;;;35.40;;
5147;SDS011;2592;48.140;7.614;2024-01-11T05:33:58;50.67;;;35.27;;
5147;SDS011;2592;48.140;7.614;2024-01-11T05:36:24;51.63;;;34.23;;
5147;SDS011;2592;48.140;7.614;2024-01-11T05:38:51;49.17;;;33.03;;
5147;SDS011;2592;48.140;7.614;2024-01-11T05:41:17;42.10;;;31.00;;
5147;SDS011;2592;48.140;7.614;2024-01-11T05:43:45;45.10;;;31.60;;
5147;SDS011;2592;48.140;7.614;2024-01-11T05:46:12;38.33;;;28.97;;
5147;SDS011;2592;48.140;7.614;2024-01-11T05:48:38;41.37;;;27.87;;
5147;SDS011;2592;48.140;7.614;2024-01-11T05:51:06;35.90;;;28.10;;
5147;SDS011;2592;48.140;7.614;2024-01-11T05:53:34;38.40;;;27.63;;
5147;SDS011;2592;48.140;7.614;2024-01-11T05:56:00;34.93;;;25.90;;
5147;SDS011;2592;48.140;7.614;2024-01-11T05:58:28;34.93;;;26.23;;
5147;SDS011;2592;48.140;7.614;2024-01-11T06:00:54;35.27;;;26.90;;
5147;SDS011;2592;48.140;7.614;2024-01-11T06:03:21;45.17;;;32.70;;
5147;SDS011;2592;48.140;7.614;2024-01-11T06:05:48;43.57;;;30.60;;
5147;SDS011;2592;48.140;7.614;2024-01-11T06:08:15;38.50;;;26.97;;
5147;SDS011;2592;48.140;7.614;2024-01-11T06:10:42;43.57;;;30.50;;
5147;SDS011;2592;48.140;7.614;2024-01-11T06:13:08;69.03;;;44.23;;
5147;SDS011;2592;48.140;7.614;2024-01-11T06:15:34;70.60;;;46.00;;
5147;SDS011;2592;48.140;7.614;2024-01-11T06:18:01;48.10;;;34.30;;
5147;SDS011;2592;48.140;7.614;2024-01-11T06:20:27;44.00;;;29.63;;
5147;SDS011;2592;48.140;7.614;2024-01-11T06:22:54;63.33;;;37.30;;
5147;SDS011;2592;48.140;7.614;2024-01-11T06:25:21;50.03;;;34.13;;
5147;SDS011;2592;48.140;7.614;2024-01-11T06:27:48;42.23;;;29.27;;
5147;SDS011;2592;48.140;7.614;2024-01-11T06:30:14;43.93;;;30.90;;
5147;SDS011;2592;48.140;7.614;2024-01-11T06:32:41;46.50;;;32.23;;
5147;SDS011;2592;48.140;7.614;2024-01-11T06:35:08;37.80;;;27.93;;
5147;SDS011;2592;48.140;7.614;2024-01-11T06:37:34;44.57;;;30.17;;
5147;SDS011;2592;48.140;7.614;2024-01-11T06:40:01;42.10;;;28.83;;
5147;SDS011;2592;48.140;7.614;2024-01-11T06:42:30;50.73;;;34.07;;
5147;SDS011;2592;48.140;7.614;2024-01-11T06:44:56;56.47;;;36.27;;
5147;SDS011;2592;48.140;7.614;2024-01-11T06:47:22;56.90;;;35.90;;
5147;SDS011;2592;48.140;7.614;2024-01-11T06:49:49;58.00;;;36.90;;
5147;SDS011;2592;48.140;7.614;2024-01-11T06:52:15;56.17;;;37.30;;
5147;SDS011;2592;48.140;7.614;2024-01-11T06:54:42;74.17;;;41.93;;
5147;SDS011;2592;48.140;7.614;2024-01-11T06:57:08;66.97;;;38.90;;
5147;SDS011;2592;48.140;7.614;2024-01-11T06:59:36;61.47;;;38.73;;
5147;SDS011;2592;48.140;7.614;2024-01-11T07:02:02;43.27;;;31.33;;
5147;SDS011;2592;48.140;7.614;2024-01-11T07:04:29;42.67;;;31.10;;
5147;SDS011;2592;48.140;7.614;2024-01-11T07:06:55;59.63;;;38.33;;
5147;SDS011;2592;48.140;7.614;2024-01-11T07:09:21;70.47;;;43.90;;
5147;SDS011;2592;48.140;7.614;2024-01-11T07:11:48;102.93;;;53.47;;
5147;SDS011;2592;48.140;7.614;2024-01-11T07:14:14;75.13;;;45.73;;
5147;SDS011;2592;48.140;7.614;2024-01-11T07:16:42;65.37;;;39.80;;
5147;SDS011;2592;48.140;7.614;2024-01-11T07:19:09;44.90;;;32.93;;
5147;SDS011;2592;48.140;7.614;2024-01-11T07:21:36;40.47;;;28.53;;
5147;SDS011;2592;48.140;7.614;2024-01-11T07:24:03;46.17;;;31.90;;
5147;SDS011;2592;48.140;7.614;2024-01-11T07:26:30;47.23;;;34.07;;
5147;SDS011;2592;48.140;7.614;2024-01-11T07:28:56;46.43;;;32.33;;
5147;SDS011;2592;48.140;7.614;2024-01-11T07:31:23;45.50;;;31.90;;
5147;SDS011;2592;48.140;7.614;2024-01-11T07:33:50;38.07;;;27.10;;
5147;SDS011;2592;48.140;7.614;2024-01-11T07:36:17;40.17;;;27.00;;
5147;SDS011;2592;48.140;7.614;2024-01-11T07:38:44;34.00;;;26.40;;
5147;SDS011;2592;48.140;7.614;2024-01-11T07:41:10;38.00;;;27.27;;
5147;SDS011;2592;48.140;7.614;2024-01-11T07:43:37;41.23;;;27.40;;
5147;SDS011;2592;48.140;7.614;2024-01-11T07:46:03;39.60;;;28.60;;
5147;SDS011;2592;48.140;7.614;2024-01-11T07:48:30;37.47;;;27.33;;
5147;SDS011;2592;48.140;7.614;2024-01-11T07:50:58;44.33;;;31.00;;
5147;SDS011;2592;48.140;7.614;2024-01-11T07:53:25;43.10;;;32.03;;
5147;SDS011;2592;48.140;7.614;2024-01-11T07:55:52;45.70;;;31.30;;
5147;SDS011;2592;48.140;7.614;2024-01-11T07:58:18;52.43;;;37.83;;
5147;SDS011;2592;48.140;7.614;2024-01-11T08:00:46;45.17;;;33.70;;
5147;SDS011;2592;48.140;7.614;2024-01-11T08:03:13;43.53;;;30.17;;
5147;SDS011;2592;48.140;7.614;2024-01-11T08:05:39;47.57;;;32.60;;
5147;SDS011;2592;48.140;7.614;2024-01-11T08:08:07;43.23;;;31.83;;
5147;SDS011;2592;48.140;7.614;2024-01-11T08:10:33;42.73;;;30.90;;
5147;SDS011;2592;48.140;7.614;2024-01-11T08:13:00;42.63;;;29.90;;
5147;SDS011;2592;48.140;7.614;2024-01-11T08:15:26;47.10;;;29.93;;
5147;SDS011;2592;48.140;7.614;2024-01-11T08:17:53;42.77;;;32.67;;
5147;SDS011;2592;48.140;7.614;2024-01-11T08:20:19;52.30;;;37.03;;
5147;SDS011;2592;48.140;7.614;2024-01-11T08:22:45;66.37;;;48.63;;
5147;SDS011;2592;48.140;7.614;2024-01-11T08:25:13;76.40;;;53.90;;
5147;SDS011;2592;48.140;7.614;2024-01-11T08:27:40;101.90;;;71.37;;
5147;SDS011;2592;48.140;7.614;2024-01-11T08:30:06;85.00;;;60.80;;
5147;SDS011;2592;48.140;7.614;2024-01-11T08:32:33;79.83;;;52.63;;
5147;SDS011;2592;48.140;7.614;2024-01-11T08:35:04;72.33;;;52.33;;
5147;SDS011;2592;48.140;7.614;2024-01-11T08:37:31;78.23;;;53.10;;
5147;SDS011;2592;48.140;7.614;2024-01-11T08:39:57;82.77;;;58.70;;
5147;SDS011;2592;48.140;7.614;2024-01-11T08:42:25;76.33;;;54.20;;
5147;SDS011;2592;48.140;7.614;2024-01-11T08:44:52;76.90;;;54.90;;
5147;SDS011;2592;48.140;7.614;2024-01-11T08:47:18;77.70;;;55.13;;
5147;SDS011;2592;48.140;7.614;2024-01-11T08:49:44;77.03;;;54.20;;
5147;SDS011;2592;48.140;7.614;2024-01-11T08:52:11;79.10;;;54.30;;
5147;SDS011;2592;48.140;7.614;2024-01-11T08:54:37;79.50;;;52.20;;
5147;SDS011;2592;48.140;7.614;2024-01-11T08:57:04;58.40;;;43.77;;
5147;SDS011;2592;48.140;7.614;2024-01-11T08:59:31;64.60;;;40.63;;
5147;SDS011;2592;48.140;7.614;2024-01-11T09:01:58;53.07;;;38.97;;
5147;SDS011;2592;48.140;7.614;2024-01-11T09:04:24;52.50;;;37.27;;
5147;SDS011;2592;48.140;7.614;2024-01-11T09:06:53;57.53;;;36.03;;
5147;SDS011;2592;48.140;7.614;2024-01-11T09:09:21;56.60;;;37.37;;
5147;SDS011;2592;48.140;7.614;2024-01-11T09:11:47;49.37;;;34.77;;
5147;SDS011;2592;48.140;7.614;2024-01-11T09:14:14;49.30;;;34.37;;
5147;SDS011;2592;48.140;7.614;2024-01-11T09:16:42;61.43;;;38.63;;
5147;SDS011;2592;48.140;7.614;2024-01-11T09:19:09;53.50;;;34.93;;
5147;SDS011;2592;48.140;7.614;2024-01-11T09:21:36;49.03;;;34.30;;
5147;SDS011;2592;48.140;7.614;2024-01-11T09:24:02;43.17;;;30.93;;
5147;SDS011;2592;48.140;7.614;2024-01-11T09:26:29;47.47;;;30.60;;
5147;SDS011;2592;48.140;7.614;2024-01-11T09:28:55;45.77;;;31.17;;
5147;SDS011;2592;48.140;7.614;2024-01-11T09:31:22;40.63;;;30.00;;
5147;SDS011;2592;48.140;7.614;2024-01-11T09:33:50;44.83;;;30.80;;
5147;SDS011;2592;48.140;7.614;2024-01-11T09:36:18;39.83;;;29.03;;
5147;SDS011;2592;48.140;7.614;2024-01-11T09:38:44;39.83;;;27.90;;
5147;SDS011;2592;48.140;7.614;2024-01-11T09:41:12;46.13;;;31.77;;
5147;SDS011;2592;48.140;7.614;2024-01-11T09:43:38;41.70;;;29.00;;
5147;SDS011;2592;48.140;7.614;2024-01-11T09:46:07;40.30;;;29.23;;
5147;SDS011;2592;48.140;7.614;2024-01-11T09:48:34;44.80;;;31.90;;
5147;SDS011;2592;48.140;7.614;2024-01-11T09:51:02;41.50;;;30.30;;
5147;SDS011;2592;48.140;7.614;2024-01-11T09:53:30;40.93;;;29.67;;
5147;SDS011;2592;48.140;7.614;2024-01-11T09:55:57;42.60;;;30.80;;
5147;SDS011;2592;48.140;7.614;2024-01-11T09:58:24;42.47;;;30.53;;
5147;SDS011;2592;48.140;7.614;2024-01-11T10:00:51;47.77;;;31.93;;
5147;SDS011;2592;48.140;7.614;2024-01-11T10:03:20;46.30;;;32.80;;
5147;SDS011;2592;48.140;7.614;2024-01-11T10:05:46;48.20;;;31.10;;
5147;SDS011;2592;48.140;7.614;2024-01-11T10:08:17;47.57;;;32.70;;
5147;SDS011;2592;48.140;7.614;2024-01-11T10:10:44;45.43;;;30.80;;
5147;SDS011;2592;48.140;7.614;2024-01-11T10:13:10;46.47;;;32.00;;
5147;SDS011;2592;48.140;7.614;2024-01-11T10:15:36;43.93;;;30.90;;
5147;SDS011;2592;48.140;7.614;2024-01-11T10:18:03;47.17;;;30.97;;
5147;SDS011;2592;48.140;7.614;2024-01-11T10:20:30;41.77;;;29.10;;
5147;SDS011;2592;48.140;7.614;2024-01-11T10:22:57;35.63;;;26.30;;
5147;SDS011;2592;48.140;7.614;2024-01-11T10:25:25;41.43;;;29.30;;
5147;SDS011;2592;48.140;7.614;2024-01-11T10:27:52;41.60;;;29.00;;
5147;SDS011;2592;48.140;7.614;2024-01-11T10:30:18;36.37;;;27.37;;
5147;SDS011;2592;48.140;7.614;2024-01-11T10:32:47;51.17;;;35.50;;
5147;SDS011;2592;48.140;7.614;2024-01-11T10:35:14;46.43;;;32.27;;
5147;SDS011;2592;48.140;7.614;2024-01-11T10:37:43;46.10;;;32.33;;
5147;SDS011;2592;48.140;7.614;2024-01-11T10:40:09;46.60;;;30.90;;
5147;SDS011;2592;48.140;7.614;2024-01-11T10:42:39;37.10;;;26.27;;
5147;SDS011;2592;48.140;7.614;2024-01-11T10:45:08;38.13;;;26.30;;
5147;SDS011;2592;48.140;7.614;2024-01-11T10:47:36;40.67;;;30.80;;
5147;SDS011;2592;48.140;7.614;2024-01-11T10:50:04;49.43;;;34.90;;
5147;SDS011;2592;48.140;7.614;2024-01-11T10:52:34;39.60;;;28.70;;
5147;SDS011;2592;48.140;7.614;2024-01-11T10:55:02;42.57;;;29.00;;
5147;SDS011;2592;48.140;7.614;2024-01-11T10:57:29;38.33;;;26.80;;
5147;SDS011;2592;48.140;7.614;2024-01-11T10:59:57;33.07;;;24.50;;
5147;SDS011;2592;48.140;7.614;2024-01-11T11:02:28;43.07;;;29.90;;
5147;SDS011;2592;48.140;7.614;2024-01-11T11:04:54;43.93;;;32.60;;
5147;SDS011;2592;48.140;7.614;2024-01-11T11:07:22;51.53;;;34.80;;
5147;SDS011;2592;48.140;7.614;2024-01-11T11:09:49;44.60;;;32.43;;
5147;SDS011;2592;48.140;7.614;2024-01-11T11:12:15;52.27;;;32.83;;
5147;SDS011;2592;48.140;7.614;2024-01-11T11:14:43;50.03;;;32.90;;
5147;SDS011;2592;48.140;7.614;2024-01-11T11:17:11;52.20;;;32.53;;
5147;SDS011;2592;48.140;7.614;2024-01-11T11:19:40;42.03;;;30.87;;
5147;SDS011;2592;48.140;7.614;2024-01-11T11:22:07;44.90;;;30.93;;
5147;SDS011;2592;48.140;7.614;2024-01-11T11:24:33;45.10;;;31.80;;
5147;SDS011;2592;48.140;7.614;2024-01-11T11:27:00;42.03;;;31.33;;
5147;SDS011;2592;48.140;7.614;2024-01-11T11:29:26;41.73;;;29.93;;
5147;SDS011;2592;48.140;7.614;2024-01-11T11:31:53;53.60;;;34.53;;
5147;SDS011;2592;48.140;7.614;2024-01-11T11:34:21;49.73;;;34.83;;
5147;SDS011;2592;48.140;7.614;2024-01-11T11:37:06;52.90;;;32.60;;
5147;SDS011;2592;48.140;7.614;2024-01-11T11:39:32;44.20;;;32.10;;
5147;SDS011;2592;48.140;7.614;2024-01-11T11:41:59;42.93;;;31.87;;
5147;SDS011;2592;48.140;7.614;2024-01-11T11:44:26;41.13;;;30.73;;
5147;SDS011;2592;48.140;7.614;2024-01-11T11:46:53;42.87;;;31.57;;
5147;SDS011;2592;48.140;7.614;2024-01-11T11:49:20;47.87;;;33.77;;
5147;SDS011;2592;48.140;7.614;2024-01-11T11:51:47;53.20;;;35.23;;
5147;SDS011;2592;48.140;7.614;2024-01-11T11:54:14;49.80;;;32.63;;
5147;SDS011;2592;48.140;7.614;2024-01-11T11:56:41;45.77;;;33.17;;
5147;SDS011;2592;48.140;7.614;2024-01-11T11:59:08;42.73;;;30.37;;
5147;SDS011;2592;48.140;7.614;2024-01-11T12:01:33;41.83;;;30.83;;
5147;SDS011;2592;48.140;7.614;2024-01-11T12:04:01;43.97;;;31.80;;
5147;SDS011;2592;48.140;7.614;2024-01-11T12:06:29;43.87;;;30.77;;
5147;SDS011;2592;48.140;7.614;2024-01-11T12:08:55;47.10;;;32.87;;
5147;SDS011;2592;48.140;7.614;2024-01-11T12:11:22;43.53;;;30.57;;
5147;SDS011;2592;48.140;7.614;2024-01-11T12:13:49;46.70;;;33.20;;
5147;SDS011;2592;48.140;7.614;2024-01-11T12:16:17;51.03;;;32.80;;
5147;SDS011;2592;48.140;7.614;2024-01-11T12:18:44;42.17;;;29.57;;
5147;SDS011;2592;48.140;7.614;2024-01-11T12:21:10;41.60;;;29.50;;
5147;SDS011;2592;48.140;7.614;2024-01-11T12:23:39;41.20;;;31.00;;
5147;SDS011;2592;48.140;7.614;2024-01-11T12:26:06;40.47;;;29.30;;
5147;SDS011;2592;48.140;7.614;2024-01-11T12:28:36;44.53;;;32.87;;
5147;SDS011;2592;48.140;7.614;2024-01-11T12:31:03;39.30;;;29.60;;
5147;SDS011;2592;48.140;7.614;2024-01-11T12:33:30;48.83;;;32.07;;
5147;SDS011;2592;48.140;7.614;2024-01-11T12:35:56;45.47;;;33.60;;
5147;SDS011;2592;48.140;7.614;2024-01-11T12:38:23;45.83;;;31.13;;
5147;SDS011;2592;48.140;7.614;2024-01-11T12:40:51;46.60;;;32.63;;
5147;SDS011;2592;48.140;7.614;2024-01-11T12:43:17;45.03;;;30.13;;
5147;SDS011;2592;48.140;7.614;2024-01-11T12:45:44;45.77;;;31.20;;
5147;SDS011;2592;48.140;7.614;2024-01-11T12:48:10;44.63;;;30.50;;
5147;SDS011;2592;48.140;7.614;2024-01-11T12:50:39;40.60;;;30.07;;
5147;SDS011;2592;48.140;7.614;2024-01-11T12:53:08;47.17;;;33.50;;
5147;SDS011;2592;48.140;7.614;2024-01-11T12:55:37;47.60;;;32.37;;
5147;SDS011;2592;48.140;7.614;2024-01-11T12:58:05;54.63;;;34.40;;
5147;SDS011;2592;48.140;7.614;2024-01-11T13:00:31;49.37;;;34.40;;
5147;SDS011;2592;48.140;7.614;2024-01-11T13:02:57;43.23;;;32.37;;
5147;SDS011;2592;48.140;7.614;2024-01-11T13:05:24;45.53;;;31.53;;
5147;SDS011;2592;48.140;7.614;2024-01-11T13:07:51;49.33;;;31.53;;
5147;SDS011;2592;48.140;7.614;2024-01-11T13:10:17;49.47;;;34.33;;
5147;SDS011;2592;48.140;7.614;2024-01-11T13:12:43;44.83;;;33.30;;
5147;SDS011;2592;48.140;7.614;2024-01-11T13:15:12;46.73;;;32.57;;
5147;SDS011;2592;48.140;7.614;2024-01-11T13:17:38;46.37;;;32.90;;
5147;SDS011;2592;48.140;7.614;2024-01-11T13:20:05;43.33;;;31.90;;
5147;SDS011;2592;48.140;7.614;2024-01-11T13:22:32;48.03;;;33.70;;
5147;SDS011;2592;48.140;7.614;2024-01-11T13:24:58;47.93;;;33.93;;
5147;SDS011;2592;48.140;7.614;2024-01-11T13:27:25;54.97;;;34.87;;
5147;SDS011;2592;48.140;7.614;2024-01-11T13:29:51;43.53;;;31.93;;
5147;SDS011;2592;48.140;7.614;2024-01-11T13:32:19;50.77;;;34.40;;
5147;SDS011;2592;48.140;7.614;2024-01-11T13:34:47;50.83;;;33.13;;
5147;SDS011;2592;48.140;7.614;2024-01-11T13:37:13;47.37;;;33.20;;
5147;SDS011;2592;48.140;7.614;2024-01-11T13:39:40;44.70;;;31.67;;
5147;SDS011;2592;48.140;7.614;2024-01-11T13:42:06;45.90;;;31.83;;
5147;SDS011;2592;48.140;7.614;2024-01-11T13:44:34;50.40;;;34.03;;
5147;SDS011;2592;48.140;7.614;2024-01-11T13:47:01;51.40;;;33.83;;
5147;SDS011;2592;48.140;7.614;2024-01-11T13:49:29;42.63;;;33.80;;
5147;SDS011;2592;48.140;7.614;2024-01-11T13:51:56;51.00;;;35.83;;
5147;SDS011;2592;48.140;7.614;2024-01-11T13:54:22;50.93;;;35.10;;
5147;SDS011;2592;48.140;7.614;2024-01-11T13:56:49;50.63;;;34.20;;
5147;SDS011;2592;48.140;7.614;2024-01-11T13:59:16;52.80;;;35.87;;
5147;SDS011;2592;48.140;7.614;2024-01-11T14:01:43;50.33;;;35.73;;
5147;SDS011;2592;48.140;7.614;2024-01-11T14:04:09;49.07;;;33.23;;
5147;SDS011;2592;48.140;7.614;2024-01-11T14:06:37;43.53;;;31.80;;
5147;SDS011;2592;48.140;7.614;2024-01-11T14:09:03;51.17;;;34.90;;
5147;SDS011;2592;48.140;7.614;2024-01-11T14:11:34;46.87;;;33.93;;
5147;SDS011;2592;48.140;7.614;2024-01-11T14:14:00;46.93;;;33.83;;
5147;SDS011;2592;48.140;7.614;2024-01-11T14:16:27;45.00;;;32.87;;
5147;SDS011;2592;48.140;7.614;2024-01-11T14:18:53;50.73;;;35.27;;
5147;SDS011;2592;48.140;7.614;2024-01-11T14:21:19;47.73;;;32.87;;
5147;SDS011;2592;48.140;7.614;2024-01-11T14:23:47;46.00;;;31.23;;
5147;SDS011;2592;48.140;7.614;2024-01-11T14:26:14;46.40;;;32.67;;
5147;SDS011;2592;48.140;7.614;2024-01-11T14:28:40;54.87;;;38.97;;
5147;SDS011;2592;48.140;7.614;2024-01-11T14:31:07;50.37;;;35.10;;
5147;SDS011;2592;48.140;7.614;2024-01-11T14:33:34;55.70;;;38.90;;
5147;SDS011;2592;48.140;7.614;2024-01-11T14:36:01;49.77;;;35.03;;
5147;SDS011;2592;48.140;7.614;2024-01-11T14:38:27;47.13;;;35.37;;
5147;SDS011;2592;48.140;7.614;2024-01-11T14:40:55;50.27;;;35.93;;
5147;SDS011;2592;48.140;7.614;2024-01-11T14:43:22;51.50;;;36.10;;
5147;SDS011;2592;48.140;7.614;2024-01-11T14:45:48;49.80;;;33.97;;